sensor_id;sensor_type;location;lat;lon;timestamp;temperature;humidity
68109;SHT30;54893;49.864;19.084;2022-09-17T00:03:17;9.73;88.45
68109;SHT30;54893;49.864;19.084;2022-09-17T00:08:18;9.82;88.01
68109;SHT30;54893;49.864;19.084;2022-09-17T00:13:18;9.82;87.98
68109;SHT30;54893;49.864;19.084;2022-09-17T00:18:19;9.67;89.08
68109;SHT30;54893;49.864;19.084;2022-09-17T00:23:19;9.52;89.65
68109;SHT30;54893;49.864;19.084;2022-09-17T00:28:19;9.61;88.93
68109;SHT30;54893;49.864;19.084;2022-09-17T00:33:20;9.68;89.04
68109;SHT30;54893;49.864;19.084;2022-09-17T00:38:20;9.65;89.13
68109;SHT30;54893;49.864;19.084;2022-09-17T00:43:44;9.51;89.91
68109;SHT30;54893;49.864;19.084;2022-09-17T00:48:45;9.33;90.57
68109;SHT30;54893;49.864;19.084;2022-09-17T00:53:46;9.31;90.05
68109;SHT30;54893;49.864;19.084;2022-09-17T00:58:46;9.61;89.65
68109;SHT30;54893;49.864;19.084;2022-09-17T01:03:48;9.77;89.44
68109;SHT30;54893;49.864;19.084;2022-09-17T01:35:35;9.64;90.28
68109;SHT30;54893;49.864;19.084;2022-09-17T01:40:53;9.82;90.10
68109;SHT30;54893;49.864;19.084;2022-09-17T01:51:14;10.09;89.93
68109;SHT30;54893;49.864;19.084;2022-09-17T01:56:21;10.18;90.27
68109;SHT30;54893;49.864;19.084;2022-09-17T02:01:28;10.26;89.65
68109;SHT30;54893;49.864;19.084;2022-09-17T02:06:34;10.35;89.49
68109;SHT30;54893;49.864;19.084;2022-09-17T02:11:38;10.48;89.14
68109;SHT30;54893;49.864;19.084;2022-09-17T02:16:45;10.49;88.59
68109;SHT30;54893;49.864;19.084;2022-09-17T02:22:20;10.46;88.17
68109;SHT30;54893;49.864;19.084;2022-09-17T02:27:51;10.55;86.86
68109;SHT30;54893;49.864;19.084;2022-09-17T02:32:53;10.56;86.72
68109;SHT30;54893;49.864;19.084;2022-09-17T02:37:54;10.56;86.52
68109;SHT30;54893;49.864;19.084;2022-09-17T02:43:11;10.35;87.08
68109;SHT30;54893;49.864;19.084;2022-09-17T02:48:27;10.15;87.53
68109;SHT30;54893;49.864;19.084;2022-09-17T03:04:01;9.80;87.94
68109;SHT30;54893;49.864;19.084;2022-09-17T03:09:03;9.81;87.69
68109;SHT30;54893;49.864;19.084;2022-09-17T03:14:04;9.84;87.60
68109;SHT30;54893;49.864;19.084;2022-09-17T03:19:04;9.70;87.87
68109;SHT30;54893;49.864;19.084;2022-09-17T03:24:05;9.70;87.66
68109;SHT30;54893;49.864;19.084;2022-09-17T03:29:05;9.58;87.79
68109;SHT30;54893;49.864;19.084;2022-09-17T03:34:06;9.52;88.01
68109;SHT30;54893;49.864;19.084;2022-09-17T03:39:06;9.50;88.03
68109;SHT30;54893;49.864;19.084;2022-09-17T03:44:06;9.27;88.42
68109;SHT30;54893;49.864;19.084;2022-09-17T03:49:09;9.34;88.25
68109;SHT30;54893;49.864;19.084;2022-09-17T03:54:09;9.20;88.35
68109;SHT30;54893;49.864;19.084;2022-09-17T03:59:09;9.06;88.72
68109;SHT30;54893;49.864;19.084;2022-09-17T04:04:10;8.99;89.18
68109;SHT30;54893;49.864;19.084;2022-09-17T04:09:10;9.14;88.59
68109;SHT30;54893;49.864;19.084;2022-09-17T04:14:11;9.09;88.52
68109;SHT30;54893;49.864;19.084;2022-09-17T04:19:11;9.02;88.95
68109;SHT30;54893;49.864;19.084;2022-09-17T04:24:11;9.17;88.58
68109;SHT30;54893;49.864;19.084;2022-09-17T04:29:11;9.02;88.89
68109;SHT30;54893;49.864;19.084;2022-09-17T04:34:12;8.77;89.34
68109;SHT30;54893;49.864;19.084;2022-09-17T04:39:12;8.63;90.03
68109;SHT30;54893;49.864;19.084;2022-09-17T04:44:12;8.59;90.11
68109;SHT30;54893;49.864;19.084;2022-09-17T04:49:13;8.77;89.42
68109;SHT30;54893;49.864;19.084;2022-09-17T04:54:13;8.80;89.48
68109;SHT30;54893;49.864;19.084;2022-09-17T04:59:14;9.04;88.76
68109;SHT30;54893;49.864;19.084;2022-09-17T05:04:14;9.33;88.25
68109;SHT30;54893;49.864;19.084;2022-09-17T05:09:15;9.52;87.83
68109;SHT30;54893;49.864;19.084;2022-09-17T05:14:15;9.77;87.36
68109;SHT30;54893;49.864;19.084;2022-09-17T05:19:15;9.92;87.29
68109;SHT30;54893;49.864;19.084;2022-09-17T05:24:16;10.02;87.19
68109;SHT30;54893;49.864;19.084;2022-09-17T05:29:16;10.05;87.36
68109;SHT30;54893;49.864;19.084;2022-09-17T05:34:16;10.25;86.81
68109;SHT30;54893;49.864;19.084;2022-09-17T05:39:17;10.39;86.34
68109;SHT30;54893;49.864;19.084;2022-09-17T05:44:18;10.72;85.44
68109;SHT30;54893;49.864;19.084;2022-09-17T05:49:18;10.97;84.44
68109;SHT30;54893;49.864;19.084;2022-09-17T05:54:19;11.03;84.17
68109;SHT30;54893;49.864;19.084;2022-09-17T05:59:19;11.22;83.64
68109;SHT30;54893;49.864;19.084;2022-09-17T06:04:20;11.28;82.76
68109;SHT30;54893;49.864;19.084;2022-09-17T06:09:20;11.23;83.11
68109;SHT30;54893;49.864;19.084;2022-09-17T06:14:21;11.27;82.82
68109;SHT30;54893;49.864;19.084;2022-09-17T06:19:21;11.33;82.67
68109;SHT30;54893;49.864;19.084;2022-09-17T06:24:21;11.44;82.44
68109;SHT30;54893;49.864;19.084;2022-09-17T06:29:22;11.48;81.71
68109;SHT30;54893;49.864;19.084;2022-09-17T06:34:22;11.48;82.05
68109;SHT30;54893;49.864;19.084;2022-09-17T06:39:22;11.47;82.27
68109;SHT30;54893;49.864;19.084;2022-09-17T06:44:23;11.54;81.77
68109;SHT30;54893;49.864;19.084;2022-09-17T06:49:24;11.70;81.01
68109;SHT30;54893;49.864;19.084;2022-09-17T06:54:24;11.73;81.22
68109;SHT30;54893;49.864;19.084;2022-09-17T06:59:24;11.88;81.12
68109;SHT30;54893;49.864;19.084;2022-09-17T07:04:25;11.91;81.72
68109;SHT30;54893;49.864;19.084;2022-09-17T07:09:26;11.99;80.35
68109;SHT30;54893;49.864;19.084;2022-09-17T07:14:26;12.04;80.42
68109;SHT30;54893;49.864;19.084;2022-09-17T07:19:26;12.20;79.68
68109;SHT30;54893;49.864;19.084;2022-09-17T07:24:27;12.29;78.50
68109;SHT30;54893;49.864;19.084;2022-09-17T07:29:27;12.34;78.59
68109;SHT30;54893;49.864;19.084;2022-09-17T07:34:27;12.34;78.68
68109;SHT30;54893;49.864;19.084;2022-09-17T07:39:28;12.36;78.40
68109;SHT30;54893;49.864;19.084;2022-09-17T07:44:28;12.36;78.38
68109;SHT30;54893;49.864;19.084;2022-09-17T07:49:29;12.45;77.74
68109;SHT30;54893;49.864;19.084;2022-09-17T07:54:30;12.48;78.46
68109;SHT30;54893;49.864;19.084;2022-09-17T07:59:31;12.53;78.57
68109;SHT30;54893;49.864;19.084;2022-09-17T08:04:31;12.55;78.31
68109;SHT30;54893;49.864;19.084;2022-09-17T08:09:31;12.69;77.39
68109;SHT30;54893;49.864;19.084;2022-09-17T08:14:32;12.86;77.39
68109;SHT30;54893;49.864;19.084;2022-09-17T08:19:33;13.04;76.97
68109;SHT30;54893;49.864;19.084;2022-09-17T08:24:33;13.00;76.44
68109;SHT30;54893;49.864;19.084;2022-09-17T08:29:33;13.07;76.45
68109;SHT30;54893;49.864;19.084;2022-09-17T08:34:35;13.22;75.45
68109;SHT30;54893;49.864;19.084;2022-09-17T08:39:36;13.39;75.58
68109;SHT30;54893;49.864;19.084;2022-09-17T08:44:43;13.58;74.90
68109;SHT30;54893;49.864;19.084;2022-09-17T08:49:51;13.40;74.74
68109;SHT30;54893;49.864;19.084;2022-09-17T09:00:11;13.48;75.41
68109;SHT30;54893;49.864;19.084;2022-09-17T09:05:19;13.95;73.97
68109;SHT30;54893;49.864;19.084;2022-09-17T09:10:28;13.92;73.42
68109;SHT30;54893;49.864;19.084;2022-09-17T09:15:35;13.91;73.16
68109;SHT30;54893;49.864;19.084;2022-09-17T09:20:48;14.01;72.85
68109;SHT30;54893;49.864;19.084;2022-09-17T09:26:15;13.95;72.83
68109;SHT30;54893;49.864;19.084;2022-09-17T09:32:15;14.35;72.95
68109;SHT30;54893;49.864;19.084;2022-09-17T09:37:09;14.43;72.14
68109;SHT30;54893;49.864;19.084;2022-09-17T09:42:28;14.62;70.04
68109;SHT30;54893;49.864;19.084;2022-09-17T09:52:57;14.96;69.38
68109;SHT30;54893;49.864;19.084;2022-09-17T09:58:22;15.09;69.86
68109;SHT30;54893;49.864;19.084;2022-09-17T10:03:27;15.20;69.38
68109;SHT30;54893;49.864;19.084;2022-09-17T10:08:34;15.58;68.99
68109;SHT30;54893;49.864;19.084;2022-09-17T10:13:35;15.47;67.58
68109;SHT30;54893;49.864;19.084;2022-09-17T10:18:36;15.19;66.84
68109;SHT30;54893;49.864;19.084;2022-09-17T10:23:37;15.17;67.71
68109;SHT30;54893;49.864;19.084;2022-09-17T10:28:48;15.43;67.87
68109;SHT30;54893;49.864;19.084;2022-09-17T10:33:58;15.43;66.95
68109;SHT30;54893;49.864;19.084;2022-09-17T10:39:18;15.31;67.26
68109;SHT30;54893;49.864;19.084;2022-09-17T10:44:23;15.22;67.06
68109;SHT30;54893;49.864;19.084;2022-09-17T10:49:34;15.10;67.62
68109;SHT30;54893;49.864;19.084;2022-09-17T11:00:08;14.79;68.62
68109;SHT30;54893;49.864;19.084;2022-09-17T11:16:56;14.15;70.79
68109;SHT30;54893;49.864;19.084;2022-09-17T11:22:04;13.61;72.37
68109;SHT30;54893;49.864;19.084;2022-09-17T11:33:06;13.10;73.82
68109;SHT30;54893;49.864;19.084;2022-09-17T11:38:09;12.92;74.88
68109;SHT30;54893;49.864;19.084;2022-09-17T11:43:25;12.96;75.08
68109;SHT30;54893;49.864;19.084;2022-09-17T11:48:47;12.99;75.64
68109;SHT30;54893;49.864;19.084;2022-09-17T11:53:57;13.27;74.39
68109;SHT30;54893;49.864;19.084;2022-09-17T11:59:18;13.73;73.81
68109;SHT30;54893;49.864;19.084;2022-09-17T12:04:53;14.18;73.38
68109;SHT30;54893;49.864;19.084;2022-09-17T12:15:21;14.38;71.02
68109;SHT30;54893;49.864;19.084;2022-09-17T12:20:48;14.39;70.75
68109;SHT30;54893;49.864;19.084;2022-09-17T12:31:25;14.77;71.67
68109;SHT30;54893;49.864;19.084;2022-09-17T12:36:29;14.86;69.66
68109;SHT30;54893;49.864;19.084;2022-09-17T12:52:09;14.56;71.79
68109;SHT30;54893;49.864;19.084;2022-09-17T12:57:24;14.55;72.07
68109;SHT30;54893;49.864;19.084;2022-09-17T13:02:36;14.69;71.32
68109;SHT30;54893;49.864;19.084;2022-09-17T13:07:51;14.79;71.39
68109;SHT30;54893;49.864;19.084;2022-09-17T13:18:33;14.96;71.99
68109;SHT30;54893;49.864;19.084;2022-09-17T13:23:44;15.17;72.24
68109;SHT30;54893;49.864;19.084;2022-09-17T13:28:51;15.07;72.01
68109;SHT30;54893;49.864;19.084;2022-09-17T13:33:58;14.75;71.52
68109;SHT30;54893;49.864;19.084;2022-09-17T13:39:03;14.45;72.13
68109;SHT30;54893;49.864;19.084;2022-09-17T13:44:04;14.38;72.05
68109;SHT30;54893;49.864;19.084;2022-09-17T13:49:12;13.74;74.39
68109;SHT30;54893;49.864;19.084;2022-09-17T13:54:14;14.05;74.39
68109;SHT30;54893;49.864;19.084;2022-09-17T13:59:18;12.52;83.06
68109;SHT30;54893;49.864;19.084;2022-09-17T14:10:26;11.60;88.58
68109;SHT30;54893;49.864;19.084;2022-09-17T14:20:48;11.64;87.63
68109;SHT30;54893;49.864;19.084;2022-09-17T14:25:53;11.70;87.34
68109;SHT30;54893;49.864;19.084;2022-09-17T14:30:54;11.64;88.09
68109;SHT30;54893;49.864;19.084;2022-09-17T14:36:19;11.64;88.19
68109;SHT30;54893;49.864;19.084;2022-09-17T14:41:22;11.53;88.66
68109;SHT30;54893;49.864;19.084;2022-09-17T14:46:28;11.60;88.42
68109;SHT30;54893;49.864;19.084;2022-09-17T14:51:29;11.78;89.34
68109;SHT30;54893;49.864;19.084;2022-09-17T14:56:31;12.05;90.41
68109;SHT30;54893;49.864;19.084;2022-09-17T15:01:33;12.46;90.53
68109;SHT30;54893;49.864;19.084;2022-09-17T15:06:33;12.45;88.01
68109;SHT30;54893;49.864;19.084;2022-09-17T15:11:35;12.22;87.53
68109;SHT30;54893;49.864;19.084;2022-09-17T15:16:46;12.14;87.76
68109;SHT30;54893;49.864;19.084;2022-09-17T15:21:49;12.10;87.87
68109;SHT30;54893;49.864;19.084;2022-09-17T15:26:52;12.02;88.02
68109;SHT30;54893;49.864;19.084;2022-09-17T15:31:54;11.97;88.19
68109;SHT30;54893;49.864;19.084;2022-09-17T15:37:20;11.87;88.47
68109;SHT30;54893;49.864;19.084;2022-09-17T15:42:25;11.87;88.51
68109;SHT30;54893;49.864;19.084;2022-09-17T15:47:48;11.91;89.85
68109;SHT30;54893;49.864;19.084;2022-09-17T15:52:56;11.85;88.68
68109;SHT30;54893;49.864;19.084;2022-09-17T15:57:57;11.77;88.96
68109;SHT30;54893;49.864;19.084;2022-09-17T16:08:37;11.61;91.52
68109;SHT30;54893;49.864;19.084;2022-09-17T16:13:37;11.53;92.54
68109;SHT30;54893;49.864;19.084;2022-09-17T16:18:37;11.43;91.99
68109;SHT30;54893;49.864;19.084;2022-09-17T16:23:38;11.37;93.03
68109;SHT30;54893;49.864;19.084;2022-09-17T16:28:38;11.28;90.35
68109;SHT30;54893;49.864;19.084;2022-09-17T16:33:39;11.30;90.58
68109;SHT30;54893;49.864;19.084;2022-09-17T16:38:40;11.26;90.25
68109;SHT30;54893;49.864;19.084;2022-09-17T16:43:40;11.20;90.22
68109;SHT30;54893;49.864;19.084;2022-09-17T16:48:41;11.14;90.59
68109;SHT30;54893;49.864;19.084;2022-09-17T16:53:43;11.12;90.55
68109;SHT30;54893;49.864;19.084;2022-09-17T16:58:43;11.07;90.44
68109;SHT30;54893;49.864;19.084;2022-09-17T17:03:44;11.12;89.96
68109;SHT30;54893;49.864;19.084;2022-09-17T17:08:48;11.09;89.44
68109;SHT30;54893;49.864;19.084;2022-09-17T17:13:48;11.04;89.39
68109;SHT30;54893;49.864;19.084;2022-09-17T17:18:48;10.97;89.59
68109;SHT30;54893;49.864;19.084;2022-09-17T17:23:52;10.92;89.60
68109;SHT30;54893;49.864;19.084;2022-09-17T17:28:52;10.86;89.80
68109;SHT30;54893;49.864;19.084;2022-09-17T17:33:53;10.80;89.95
68109;SHT30;54893;49.864;19.084;2022-09-17T17:38:57;10.80;90.10
68109;SHT30;54893;49.864;19.084;2022-09-17T17:43:58;10.84;90.21
68109;SHT30;54893;49.864;19.084;2022-09-17T17:48:58;10.77;90.85
68109;SHT30;54893;49.864;19.084;2022-09-17T17:53:59;10.70;90.96
68109;SHT30;54893;49.864;19.084;2022-09-17T17:58:59;10.76;90.49
68109;SHT30;54893;49.864;19.084;2022-09-17T18:04:02;10.70;90.58
68109;SHT30;54893;49.864;19.084;2022-09-17T18:09:05;10.76;90.58
68109;SHT30;54893;49.864;19.084;2022-09-17T18:14:10;10.76;90.51
68109;SHT30;54893;49.864;19.084;2022-09-17T18:19:11;10.80;90.21
68109;SHT30;54893;49.864;19.084;2022-09-17T18:24:12;10.75;90.16
68109;SHT30;54893;49.864;19.084;2022-09-17T18:29:12;10.80;89.87
68109;SHT30;54893;49.864;19.084;2022-09-17T18:34:15;10.72;89.82
68109;SHT30;54893;49.864;19.084;2022-09-17T18:39:15;10.65;90.21
68109;SHT30;54893;49.864;19.084;2022-09-17T18:44:16;10.59;90.94
68109;SHT30;54893;49.864;19.084;2022-09-17T18:49:18;10.59;90.43
68109;SHT30;54893;49.864;19.084;2022-09-17T18:54:18;10.65;90.61
68109;SHT30;54893;49.864;19.084;2022-09-17T18:59:19;10.68;90.59
68109;SHT30;54893;49.864;19.084;2022-09-17T19:04:19;10.60;90.87
68109;SHT30;54893;49.864;19.084;2022-09-17T19:09:20;10.46;91.56
68109;SHT30;54893;49.864;19.084;2022-09-17T19:14:20;10.26;92.84
68109;SHT30;54893;49.864;19.084;2022-09-17T19:19:21;10.24;92.98
68109;SHT30;54893;49.864;19.084;2022-09-17T19:24:21;10.16;93.54
68109;SHT30;54893;49.864;19.084;2022-09-17T19:29:21;10.11;93.90
68109;SHT30;54893;49.864;19.084;2022-09-17T19:34:21;10.11;93.91
68109;SHT30;54893;49.864;19.084;2022-09-17T19:39:22;10.04;94.32
68109;SHT30;54893;49.864;19.084;2022-09-17T19:44:22;10.12;94.29
68109;SHT30;54893;49.864;19.084;2022-09-17T19:49:23;10.12;93.92
68109;SHT30;54893;49.864;19.084;2022-09-17T19:54:23;10.11;94.15
68109;SHT30;54893;49.864;19.084;2022-09-17T19:59:23;10.15;93.99
68109;SHT30;54893;49.864;19.084;2022-09-17T20:04:26;10.08;94.28
68109;SHT30;54893;49.864;19.084;2022-09-17T20:09:27;10.05;94.78
68109;SHT30;54893;49.864;19.084;2022-09-17T20:14:27;10.02;95.13
68109;SHT30;54893;49.864;19.084;2022-09-17T20:19:27;10.12;95.04
68109;SHT30;54893;49.864;19.084;2022-09-17T20:24:28;10.15;95.13
68109;SHT30;54893;49.864;19.084;2022-09-17T20:29:28;10.12;95.14
68109;SHT30;54893;49.864;19.084;2022-09-17T20:34:29;10.01;95.55
68109;SHT30;54893;49.864;19.084;2022-09-17T20:39:29;9.94;95.62
68109;SHT30;54893;49.864;19.084;2022-09-17T20:44:30;9.91;95.80
68109;SHT30;54893;49.864;19.084;2022-09-17T20:49:30;9.98;95.67
68109;SHT30;54893;49.864;19.084;2022-09-17T20:54:30;9.94;95.97
68109;SHT30;54893;49.864;19.084;2022-09-17T20:59:31;9.88;96.17
68109;SHT30;54893;49.864;19.084;2022-09-17T21:04:49;9.95;96.18
68109;SHT30;54893;49.864;19.084;2022-09-17T21:09:50;9.88;97.10
68109;SHT30;54893;49.864;19.084;2022-09-17T21:14:50;10.06;96.15
68109;SHT30;54893;49.864;19.084;2022-09-17T21:19:50;10.02;94.23
68109;SHT30;54893;49.864;19.084;2022-09-17T21:24:51;9.95;93.32
68109;SHT30;54893;49.864;19.084;2022-09-17T21:29:52;9.65;93.75
68109;SHT30;54893;49.864;19.084;2022-09-17T21:34:52;9.44;94.18
68109;SHT30;54893;49.864;19.084;2022-09-17T21:39:52;9.23;94.97
68109;SHT30;54893;49.864;19.084;2022-09-17T21:44:53;9.14;95.34
68109;SHT30;54893;49.864;19.084;2022-09-17T21:49:53;9.20;95.46
68109;SHT30;54893;49.864;19.084;2022-09-17T21:54:53;9.04;95.70
68109;SHT30;54893;49.864;19.084;2022-09-17T21:59:54;8.99;96.27
68109;SHT30;54893;49.864;19.084;2022-09-17T22:04:54;8.97;96.48
68109;SHT30;54893;49.864;19.084;2022-09-17T22:09:54;9.00;96.49
68109;SHT30;54893;49.864;19.084;2022-09-17T22:14:55;9.04;96.28
68109;SHT30;54893;49.864;19.084;2022-09-17T22:19:55;9.03;96.32
68109;SHT30;54893;49.864;19.084;2022-09-17T22:24:55;9.03;96.46
68109;SHT30;54893;49.864;19.084;2022-09-17T22:29:56;9.04;96.56
68109;SHT30;54893;49.864;19.084;2022-09-17T22:34:56;9.02;96.65
68109;SHT30;54893;49.864;19.084;2022-09-17T22:39:56;9.03;96.88
68109;SHT30;54893;49.864;19.084;2022-09-17T22:44:57;9.00;97.11
68109;SHT30;54893;49.864;19.084;2022-09-17T22:49:57;9.00;97.10
68109;SHT30;54893;49.864;19.084;2022-09-17T22:54:57;9.02;97.44
68109;SHT30;54893;49.864;19.084;2022-09-17T22:59:58;9.02;97.81
68109;SHT30;54893;49.864;19.084;2022-09-17T23:04:58;9.10;97.30
68109;SHT30;54893;49.864;19.084;2022-09-17T23:09:59;9.17;96.90
68109;SHT30;54893;49.864;19.084;2022-09-17T23:14:59;9.17;97.10
68109;SHT30;54893;49.864;19.084;2022-09-17T23:20:00;9.17;96.99
68109;SHT30;54893;49.864;19.084;2022-09-17T23:25:00;9.16;97.43
68109;SHT30;54893;49.864;19.084;2022-09-17T23:30:00;9.20;97.15
68109;SHT30;54893;49.864;19.084;2022-09-17T23:35:00;9.24;97.12
68109;SHT30;54893;49.864;19.084;2022-09-17T23:40:01;9.23;97.20
68109;SHT30;54893;49.864;19.084;2022-09-17T23:45:01;9.28;97.34
68109;SHT30;54893;49.864;19.084;2022-09-17T23:50:02;9.28;97.30
68109;SHT30;54893;49.864;19.084;2022-09-17T23:55:04;9.27;97.32
